Terminal Aerodrome Forecast
Issued by NWS

Home | Current Version | Previous Version | Text Only | Print | Product List | Glossary On
Versions: 1 2 3 4 5 6 7 8 9 10 11 12 13
909
FTUS42 TJSJ 101725 CCA
TAFJPS
TAF COR
TJPS 101725Z 1018/1118 10010KT P6SM FEW030 SCT050
     FM102300 08007KT P6SM SKC
     FM111300 15012KT P6SM FEW025 FEW040
      AMD NOT SKED TIL 110300=

USA.gov is the U.S. government's official web portal to all federal, state and local government web resources and services.